createdAt,value
2022-12-15T00:01:04.447Z,100126.59
2022-12-15T00:03:52.334Z,100124.84
2022-12-15T00:06:38.885Z,100137.47
2022-12-15T00:09:30.928Z,100141.06
2022-12-15T00:12:17.811Z,100147.19
2022-12-15T00:15:03.132Z,100155.88
2022-12-15T00:17:59.486Z,100144.78
2022-12-15T00:20:46.028Z,100153.47
2022-12-15T00:23:34.311Z,100161.22
2022-12-15T00:26:23.015Z,100156.09
2022-12-15T00:29:08.579Z,100175.94
2022-12-15T00:31:54.717Z,100158.31
2022-12-15T00:34:42.404Z,100154.41
2022-12-15T00:37:29.841Z,100144.53
2022-12-15T00:39:59.521Z,100161.66
2022-12-15T00:42:28.809Z,100171.16
2022-12-15T00:44:59.570Z,100159.31
2022-12-15T00:47:29.168Z,100142.53
2022-12-15T00:50:14.876Z,100141.91
2022-12-15T00:53:04.954Z,100128.59
2022-12-15T00:55:54.421Z,100140.75
2022-12-15T00:58:39.802Z,100134.13
2022-12-15T01:01:28.394Z,100131.91
2022-12-15T01:04:14.378Z,100123.66
2022-12-15T01:06:59.722Z,100118.69
2022-12-15T01:09:52.359Z,100116.47
2022-12-15T01:12:37.702Z,100104.81
2022-12-15T01:15:23.193Z,100126.31
2022-12-15T01:18:08.591Z,100116.19
2022-12-15T01:20:36.574Z,100125.00
2022-12-15T01:23:13.595Z,100115.78
2022-12-15T01:25:43.057Z,100128.78
2022-12-15T01:28:11.670Z,100124.66
2022-12-15T01:30:39.236Z,100124.09
2022-12-15T01:33:09.905Z,100127.84
2022-12-15T01:35:39.947Z,100128.88
2022-12-15T01:38:07.396Z,100115.50
2022-12-15T01:40:47.258Z,100125.72
2022-12-15T01:43:17.164Z,100124.81
2022-12-15T01:45:52.759Z,100130.03
2022-12-15T01:48:44.486Z,100135.88
2022-12-15T01:51:18.026Z,100140.06
2022-12-15T01:53:54.242Z,100148.56
2022-12-15T01:56:23.576Z,100150.31
2022-12-15T01:58:53.933Z,100149.34
2022-12-15T02:01:25.446Z,100166.31
2022-12-15T02:03:53.029Z,100159.47
2022-12-15T02:06:22.297Z,100155.34
2022-12-15T02:08:53.586Z,100142.28
2022-12-15T02:11:43.071Z,100161.88
2022-12-15T02:14:12.408Z,100154.91
2022-12-15T02:16:50.527Z,100142.13
2022-12-15T02:19:38.112Z,100132.03
2022-12-15T02:22:15.371Z,100131.09
2022-12-15T02:25:07.433Z,100119.81
2022-12-15T02:27:53.719Z,100128.31
2022-12-15T02:30:26.541Z,100121.31
2022-12-15T02:33:24.154Z,100129.88
2022-12-15T02:36:13.407Z,100139.03
2022-12-15T02:38:41.981Z,100140.75
2022-12-15T02:41:54.744Z,100131.25
2022-12-15T02:44:35.966Z,100138.97
2022-12-15T02:47:13.128Z,100145.66
2022-12-15T02:49:58.578Z,100154.25
2022-12-15T02:52:35.250Z,100152.44
2022-12-15T02:55:24.749Z,100163.53
2022-12-15T02:58:03.495Z,100149.78
2022-12-15T03:00:35.943Z,100154.31
2022-12-15T03:03:03.260Z,100154.31
2022-12-15T03:05:32.572Z,100159.44
2022-12-15T03:08:04.514Z,100165.47
2022-12-15T03:10:34.013Z,100163.75
2022-12-15T03:13:01.088Z,100169.69
2022-12-15T03:15:35.018Z,100168.22
2022-12-15T03:18:02.605Z,100178.47
2022-12-15T03:20:29.615Z,100165.66
2022-12-15T03:22:56.372Z,100158.66
2022-12-15T03:25:23.126Z,100164.53
2022-12-15T03:27:49.919Z,100163.66
2022-12-15T03:30:19.432Z,100166.16
2022-12-15T03:32:47.240Z,100169.63
2022-12-15T03:35:14.228Z,100171.28
2022-12-15T03:37:44.581Z,100173.78
2022-12-15T03:40:13.964Z,100166.03
2022-12-15T03:42:48.619Z,100169.38
2022-12-15T03:45:23.776Z,100175.41
2022-12-15T03:47:54.446Z,100183.06
2022-12-15T03:50:24.558Z,100172.59
2022-12-15T03:52:57.046Z,100176.78
2022-12-15T03:55:24.862Z,100170.94
2022-12-15T03:57:52.850Z,100172.47
2022-12-15T04:00:24.587Z,100177.50
2022-12-15T04:02:53.101Z,100183.41
2022-12-15T04:05:29.595Z,100179.03
2022-12-15T04:07:59.393Z,100169.75
2022-12-15T04:10:33.574Z,100174.91
2022-12-15T04:13:06.082Z,100173.38
2022-12-15T04:15:36.048Z,100179.19
2022-12-15T04:18:06.178Z,100180.00
2022-12-15T04:20:33.292Z,100179.03
2022-12-15T04:23:01.388Z,100174.78
2022-12-15T04:25:46.886Z,100183.34
2022-12-15T04:28:32.538Z,100186.69
2022-12-15T04:31:32.632Z,100184.97
2022-12-15T04:34:29.625Z,100189.31
2022-12-15T04:37:15.904Z,100199.28
2022-12-15T04:40:07.642Z,100218.00
2022-12-15T04:42:54.781Z,100212.09
2022-12-15T04:45:42.856Z,100201.09
2022-12-15T04:48:29.821Z,100197.69
2022-12-15T04:51:18.446Z,100200.03
2022-12-15T04:54:04.607Z,100194.78
2022-12-15T04:56:54.627Z,100197.38
2022-12-15T04:59:48.273Z,100199.81
2022-12-15T05:02:34.109Z,100201.34
2022-12-15T05:05:23.270Z,100199.75
2022-12-15T05:08:11.876Z,100205.00
2022-12-15T05:10:57.311Z,100199.06
2022-12-15T05:13:42.530Z,100208.63
2022-12-15T05:16:27.970Z,100211.84
2022-12-15T05:19:14.608Z,100211.75
2022-12-15T05:22:02.963Z,100217.78
2022-12-15T05:24:48.110Z,100225.38
2022-12-15T05:27:33.429Z,100221.94
2022-12-15T05:30:18.679Z,100211.84
2022-12-15T05:32:45.984Z,100218.91
2022-12-15T05:35:17.087Z,100208.00
2022-12-15T05:37:43.830Z,100214.78
2022-12-15T05:40:11.908Z,100218.25
2022-12-15T05:42:38.475Z,100218.25
2022-12-15T05:45:07.876Z,100211.41
2022-12-15T05:47:34.663Z,100215.75
2022-12-15T05:50:04.009Z,100219.31
2022-12-15T05:52:30.891Z,100226.88
2022-12-15T05:54:57.668Z,100237.94
2022-12-15T05:57:26.999Z,100238.56
2022-12-15T05:59:53.891Z,100244.44
2022-12-15T06:02:22.708Z,100244.25
2022-12-15T06:04:49.491Z,100249.34
2022-12-15T06:07:19.717Z,100261.41
2022-12-15T06:09:48.885Z,100262.31
2022-12-15T06:12:19.899Z,100259.72
2022-12-15T06:14:49.889Z,100255.34
2022-12-15T06:17:17.275Z,100252.75
2022-12-15T06:19:44.205Z,100262.25
2022-12-15T06:22:10.959Z,100252.69
2022-12-15T06:24:42.834Z,100257.97
2022-12-15T06:27:12.749Z,100259.72
2022-12-15T06:29:39.565Z,100262.31
2022-12-15T06:34:49.465Z,100282.75
2022-12-15T06:37:16.686Z,100288.97
2022-12-15T06:39:43.648Z,100291.53
2022-12-15T06:42:10.817Z,100289.03
2022-12-15T06:44:40.542Z,100300.91
2022-12-15T06:47:12.124Z,100299.38
2022-12-15T06:49:39.330Z,100293.28
2022-12-15T06:52:10.733Z,100295.88
2022-12-15T06:54:38.731Z,100295.13
2022-12-15T06:57:05.934Z,100301.16
2022-12-15T06:59:33.684Z,100316.44
2022-12-15T07:02:04.014Z,100320.53
2022-12-15T07:04:35.337Z,100316.13
2022-12-15T07:07:05.847Z,100324.75
2022-12-15T07:09:35.324Z,100328.13
2022-12-15T07:12:05.483Z,100331.47
2022-12-15T07:14:32.532Z,100340.97
2022-12-15T07:16:59.260Z,100343.66
2022-12-15T07:19:28.159Z,100340.97
2022-12-15T07:21:57.929Z,100342.97
2022-12-15T07:24:24.700Z,100347.34
2022-12-15T07:26:54.691Z,100346.59
2022-12-15T07:29:23.633Z,100357.16
2022-12-15T07:31:50.814Z,100351.31
2022-12-15T07:34:20.471Z,100353.41
2022-12-15T07:36:52.500Z,100354.41
2022-12-15T07:39:19.665Z,100359.75
2022-12-15T07:41:47.009Z,100362.44
2022-12-15T07:44:19.553Z,100370.25
2022-12-15T07:46:49.347Z,100366.28
2022-12-15T07:49:45.122Z,100363.97
2022-12-15T07:52:22.920Z,100362.31
2022-12-15T07:54:50.135Z,100372.88
2022-12-15T07:57:18.246Z,100367.78
2022-12-15T07:59:45.113Z,100375.69
2022-12-15T08:02:19.512Z,100387.75
2022-12-15T08:04:48.551Z,100387.94
2022-12-15T08:07:17.738Z,100397.44
2022-12-15T08:09:48.443Z,100385.50
2022-12-15T08:12:20.019Z,100393.41
2022-12-15T08:15:49.308Z,100412.56
2022-12-15T08:18:19.103Z,100402.44
2022-12-15T08:20:50.338Z,100409.50
2022-12-15T08:23:18.839Z,100409.63
2022-12-15T08:25:46.175Z,100412.31
2022-12-15T08:28:15.510Z,100418.44
2022-12-15T08:30:43.062Z,100422.13
2022-12-15T08:33:13.004Z,100413.88
2022-12-15T08:35:57.467Z,100419.19
2022-12-15T08:38:24.795Z,100413.38
2022-12-15T08:40:52.853Z,100410.25
2022-12-15T08:43:19.605Z,100408.03
2022-12-15T08:45:47.253Z,100423.66
2022-12-15T08:48:14.182Z,100411.94
2022-12-15T08:50:45.811Z,100416.41
2022-12-15T08:56:08.534Z,100431.63
2022-12-15T08:58:35.173Z,100421.56
2022-12-15T09:01:10.189Z,100438.94
2022-12-15T09:03:40.892Z,100434.16
2022-12-15T09:06:24.826Z,100430.16
2022-12-15T09:08:58.626Z,100435.56
2022-12-15T09:11:32.146Z,100432.47
2022-12-15T09:14:27.096Z,100440.34
2022-12-15T09:16:55.970Z,100442.25
2022-12-15T09:19:23.985Z,100441.63
2022-12-15T09:21:59.820Z,100449.66
2022-12-15T09:25:03.182Z,100451.66
2022-12-15T09:27:39.756Z,100444.91
2022-12-15T09:30:38.147Z,100443.56
2022-12-15T09:33:05.317Z,100455.72
2022-12-15T09:35:35.370Z,100449.72
2022-12-15T09:38:05.895Z,100450.00
2022-12-15T09:40:50.756Z,100440.03
2022-12-15T09:43:40.049Z,100448.88
2022-12-15T09:46:50.712Z,100442.28
2022-12-15T09:49:54.715Z,100458.78
2022-12-15T09:52:48.798Z,100452.91
2022-12-15T09:55:29.093Z,100447.94
2022-12-15T09:58:27.404Z,100454.16
2022-12-15T10:01:15.135Z,100449.13
2022-12-15T10:03:54.808Z,100459.63
2022-12-15T10:07:03.546Z,100458.03
2022-12-15T10:09:33.069Z,100447.78
2022-12-15T10:12:05.511Z,100447.06
2022-12-15T10:14:50.072Z,100451.53
2022-12-15T10:17:44.683Z,100442.97
2022-12-15T10:20:35.911Z,100444.81
2022-12-15T10:23:20.563Z,100456.16
2022-12-15T10:26:20.445Z,100443.38
2022-12-15T10:29:23.911Z,100449.69
2022-12-15T10:32:02.696Z,100441.19
2022-12-15T10:34:35.444Z,100441.47
2022-12-15T10:37:05.359Z,100424.41
2022-12-15T10:39:50.307Z,100419.44
2022-12-15T10:45:39.669Z,100423.25
2022-12-15T10:48:22.926Z,100426.84
2022-12-15T10:51:32.913Z,100434.06
2022-12-15T10:54:24.454Z,100433.53
2022-12-15T10:57:13.114Z,100440.59
2022-12-15T11:00:35.504Z,100432.34
2022-12-15T11:07:35.612Z,100438.13
2022-12-15T11:11:07.776Z,100433.03
2022-12-15T11:13:36.176Z,100437.59
2022-12-15T11:16:27.115Z,100449.75
2022-12-15T11:19:50.144Z,100444.72
2022-12-15T11:23:04.475Z,100457.72
2022-12-15T11:26:34.150Z,100454.41
2022-12-15T11:29:43.989Z,100463.31
2022-12-15T11:32:22.686Z,100449.13
2022-12-15T11:35:05.957Z,100444.63
2022-12-15T11:37:40.428Z,100451.13
2022-12-15T11:40:33.409Z,100456.59
2022-12-15T11:43:09.883Z,100446.56
2022-12-15T11:45:55.757Z,100446.78
2022-12-15T11:48:33.192Z,100444.41
2022-12-15T11:51:24.449Z,100441.22
2022-12-15T11:54:09.643Z,100454.41
2022-12-15T11:57:03.628Z,100449.41
2022-12-15T11:59:45.907Z,100458.97
2022-12-15T12:03:14.487Z,100459.88
2022-12-15T12:06:17.526Z,100469.22
2022-12-15T12:09:12.382Z,100473.53
2022-12-15T12:12:05.411Z,100470.09
2022-12-15T12:14:53.850Z,100466.78
2022-12-15T12:18:27.143Z,100470.25
2022-12-15T12:21:05.322Z,100461.72
2022-12-15T12:24:10.087Z,100469.75
2022-12-15T12:26:58.735Z,100468.19
2022-12-15T12:29:51.062Z,100463.25
2022-12-15T12:32:45.520Z,100471.03
2022-12-15T12:35:48.877Z,100464.94
2022-12-15T12:38:35.218Z,100457.06
2022-12-15T12:41:28.744Z,100460.44
2022-12-15T12:44:02.953Z,100468.97
2022-12-15T12:46:39.320Z,100465.50
2022-12-15T12:49:37.065Z,100467.19
2022-12-15T12:55:58.635Z,100462.66
2022-12-15T12:58:53.178Z,100472.94
2022-12-15T13:02:04.652Z,100463.34
2022-12-15T13:04:40.797Z,100469.41
2022-12-15T13:07:46.072Z,100469.47
2022-12-15T13:10:35.091Z,100463.63
2022-12-15T13:13:36.089Z,100475.00
2022-12-15T13:16:30.456Z,100469.13
2022-12-15T13:19:15.604Z,100461.31
2022-12-15T13:22:29.257Z,100465.50
2022-12-15T13:25:00.788Z,100468.00
2022-12-15T13:27:41.014Z,100477.50
2022-12-15T13:30:10.244Z,100476.69
2022-12-15T13:32:42.737Z,100471.44
2022-12-15T13:35:47.472Z,100480.91
2022-12-15T13:38:19.616Z,100474.84
2022-12-15T13:40:58.282Z,100479.97
2022-12-15T13:43:34.465Z,100485.09
2022-12-15T13:46:30.397Z,100473.88
2022-12-15T13:49:28.675Z,100487.69
2022-12-15T13:53:16.295Z,100482.50
2022-12-15T13:55:40.260Z,100489.41
2022-12-15T13:58:18.841Z,100481.59
2022-12-15T14:01:05.852Z,100486.75
2022-12-15T14:03:39.720Z,100497.94
2022-12-15T14:06:17.585Z,100490.06
2022-12-15T14:08:51.069Z,100490.84
2022-12-15T14:11:53.192Z,100494.22
2022-12-15T15:03:04.066Z,100418.75
2022-12-15T19:00:22.208Z,100689.06
2022-12-15T19:05:57.359Z,100680.44
2022-12-15T19:08:36.498Z,100693.44
2022-12-15T19:11:46.841Z,100689.19
2022-12-15T19:14:35.172Z,100690.88
2022-12-15T19:17:35.765Z,100709.91
2022-12-15T19:20:35.079Z,100713.25
2022-12-15T19:23:03.500Z,100707.25
2022-12-15T19:25:33.692Z,100715.94
2022-12-15T19:28:01.549Z,100716.75
2022-12-15T19:30:45.487Z,100726.28
2022-12-15T19:33:21.885Z,100726.28
2022-12-15T19:35:55.494Z,100738.31
2022-12-15T19:38:33.418Z,100727.16
2022-12-15T19:41:02.927Z,100738.31
2022-12-15T19:43:31.030Z,100739.09
2022-12-15T19:46:00.385Z,100747.72
2022-12-15T19:48:29.081Z,100747.72
2022-12-15T19:50:56.142Z,100752.09
2022-12-15T19:53:30.864Z,100751.25
2022-12-15T19:56:01.767Z,100752.09
2022-12-15T19:58:39.663Z,100738.34
2022-12-15T20:01:16.672Z,100750.47
2022-12-15T20:03:53.254Z,100743.47
2022-12-15T20:06:26.092Z,100746.16
2022-12-15T20:09:01.408Z,100745.22
2022-12-15T20:11:37.289Z,100746.97
2022-12-15T20:14:20.135Z,100747.78
2022-12-15T20:16:54.805Z,100750.44
2022-12-15T20:19:25.746Z,100751.22
2022-12-15T20:22:06.821Z,100754.66
2022-12-15T20:24:43.593Z,100756.47
2022-12-15T20:27:21.198Z,100758.22
2022-12-15T20:30:08.356Z,100759.00
2022-12-15T20:32:38.523Z,100760.69
2022-12-15T20:38:55.007Z,100767.53
2022-12-15T20:41:30.456Z,100765.72
2022-12-15T20:44:35.598Z,100778.63
2022-12-15T20:47:28.772Z,100779.47
2022-12-15T20:54:20.308Z,100778.59
2022-12-15T20:57:46.253Z,100786.28
2022-12-15T21:00:43.977Z,100788.88
2022-12-15T21:03:40.930Z,100800.00
2022-12-15T21:06:19.422Z,100794.78
2022-12-15T21:08:47.294Z,100797.41
2022-12-15T21:11:29.268Z,100788.78
2022-12-15T21:14:31.511Z,100793.91
2022-12-15T21:17:05.554Z,100799.09
2022-12-15T21:19:34.982Z,100801.63
2022-12-15T21:22:04.042Z,100799.06
2022-12-15T21:24:39.377Z,100804.97
2022-12-15T21:27:19.240Z,100804.94
2022-12-15T21:29:58.233Z,100803.91
2022-12-15T21:32:40.006Z,100817.75
2022-12-15T21:35:15.315Z,100814.19
2022-12-15T21:37:52.427Z,100814.13
2022-12-15T21:40:29.231Z,100820.22
2022-12-15T21:43:25.526Z,100810.72
2022-12-15T21:46:24.622Z,100805.59
2022-12-15T21:49:14.579Z,100806.38
2022-12-15T21:52:02.744Z,100811.50
2022-12-15T21:54:37.252Z,100804.44
2022-12-15T21:57:14.328Z,100811.34
2022-12-15T21:59:47.988Z,100817.25
2022-12-15T22:02:27.940Z,100817.16
2022-12-15T22:05:02.546Z,100817.94
2022-12-15T22:07:39.492Z,100817.69
2022-12-15T22:10:13.589Z,100816.06
2022-12-15T22:12:59.544Z,100805.75
2022-12-15T22:16:17.832Z,100808.13
2022-12-15T22:18:54.997Z,100803.66
2022-12-15T22:21:24.965Z,100811.41
2022-12-15T22:24:00.275Z,100813.94
2022-12-15T22:26:34.472Z,100804.41
2022-12-15T22:29:22.260Z,100800.94
2022-12-15T22:32:18.942Z,100802.59
2022-12-15T22:34:50.056Z,100805.28
2022-12-15T22:37:19.909Z,100803.44
2022-12-15T22:39:57.844Z,100806.88
2022-12-15T22:42:26.523Z,100806.84
2022-12-15T22:45:10.357Z,100807.50
2022-12-15T22:47:41.074Z,100804.78
2022-12-15T22:50:31.610Z,100821.06
2022-12-15T22:53:04.806Z,100820.97
2022-12-15T22:55:33.771Z,100818.25
2022-12-15T22:58:22.691Z,100828.72
2022-12-15T23:00:58.682Z,100819.19
2022-12-15T23:03:32.344Z,100825.31
2022-12-15T23:06:08.362Z,100824.41
2022-12-15T23:08:39.486Z,100832.16
2022-12-15T23:11:42.263Z,100827.78
2022-12-15T23:14:15.128Z,100837.97
2022-12-15T23:16:57.000Z,100834.31
2022-12-15T23:19:28.784Z,100838.56
2022-12-15T23:21:57.527Z,100838.56
2022-12-15T23:24:24.899Z,100840.34
2022-12-15T23:27:00.796Z,100847.34
2022-12-15T23:29:42.193Z,100849.94
2022-12-15T23:32:12.816Z,100850.72
2022-12-15T23:34:44.103Z,100843.78
2022-12-15T23:37:16.484Z,100849.00
2022-12-15T23:39:52.645Z,100858.63
2022-12-15T23:42:26.679Z,100862.97
2022-12-15T23:45:04.194Z,100864.72
2022-12-15T23:47:38.775Z,100868.09
2022-12-15T23:50:12.984Z,100855.06
2022-12-15T23:52:51.325Z,100857.69
2022-12-15T23:55:26.931Z,100867.22
2022-12-15T23:57:58.858Z,100852.59
